sensor_id;sensor_type;location;lat;lon;timestamp;P1;durP1;ratioP1;P2;durP2;ratioP2
12968;SDS011;6549;53.128;8.182;2023-03-01T00:01:02;23.27;;;13.00;;
12968;SDS011;6549;53.128;8.182;2023-03-01T00:04:07;19.77;;;12.90;;
12968;SDS011;6549;53.128;8.182;2023-03-01T00:07:07;21.95;;;12.48;;
12968;SDS011;6549;53.128;8.182;2023-03-01T00:10:08;24.77;;;14.98;;
12968;SDS011;6549;53.128;8.182;2023-03-01T00:13:09;27.58;;;16.02;;
12968;SDS011;6549;53.128;8.182;2023-03-01T00:16:12;20.63;;;13.05;;
12968;SDS011;6549;53.128;8.182;2023-03-01T00:19:15;25.15;;;14.18;;
12968;SDS011;6549;53.128;8.182;2023-03-01T00:25:17;20.27;;;12.57;;
12968;SDS011;6549;53.128;8.182;2023-03-01T00:28:17;21.85;;;12.65;;
12968;SDS011;6549;53.128;8.182;2023-03-01T00:31:19;22.83;;;13.90;;
12968;SDS011;6549;53.128;8.182;2023-03-01T00:34:21;25.88;;;15.20;;
12968;SDS011;6549;53.128;8.182;2023-03-01T00:37:21;25.08;;;14.95;;
12968;SDS011;6549;53.128;8.182;2023-03-01T00:40:32;23.27;;;14.32;;
12968;SDS011;6549;53.128;8.182;2023-03-01T00:43:34;22.98;;;13.40;;
12968;SDS011;6549;53.128;8.182;2023-03-01T00:46:37;20.17;;;12.80;;
12968;SDS011;6549;53.128;8.182;2023-03-01T00:49:37;18.42;;;11.38;;
12968;SDS011;6549;53.128;8.182;2023-03-01T00:52:38;18.55;;;11.15;;
12968;SDS011;6549;53.128;8.182;2023-03-01T00:55:38;21.67;;;12.88;;
12968;SDS011;6549;53.128;8.182;2023-03-01T00:58:38;24.98;;;14.32;;
12968;SDS011;6549;53.128;8.182;2023-03-01T01:01:39;20.75;;;13.05;;
12968;SDS011;6549;53.128;8.182;2023-03-01T01:04:40;22.42;;;13.25;;
12968;SDS011;6549;53.128;8.182;2023-03-01T01:07:40;20.60;;;12.20;;
12968;SDS011;6549;53.128;8.182;2023-03-01T01:10:42;21.83;;;12.48;;
12968;SDS011;6549;53.128;8.182;2023-03-01T01:13:44;19.85;;;11.55;;
12968;SDS011;6549;53.128;8.182;2023-03-01T01:16:45;19.60;;;12.20;;
12968;SDS011;6549;53.128;8.182;2023-03-01T01:19:46;20.00;;;12.50;;
12968;SDS011;6549;53.128;8.182;2023-03-01T01:22:46;17.95;;;11.13;;
12968;SDS011;6549;53.128;8.182;2023-03-01T01:25:46;17.05;;;11.73;;
12968;SDS011;6549;53.128;8.182;2023-03-01T01:28:47;16.98;;;10.75;;
12968;SDS011;6549;53.128;8.182;2023-03-01T01:31:48;17.98;;;11.20;;
12968;SDS011;6549;53.128;8.182;2023-03-01T01:34:48;17.67;;;10.75;;
12968;SDS011;6549;53.128;8.182;2023-03-01T01:37:48;19.50;;;12.18;;
12968;SDS011;6549;53.128;8.182;2023-03-01T01:40:49;21.23;;;12.70;;
12968;SDS011;6549;53.128;8.182;2023-03-01T01:44:11;20.85;;;12.65;;
12968;SDS011;6549;53.128;8.182;2023-03-01T01:47:21;22.15;;;12.80;;
12968;SDS011;6549;53.128;8.182;2023-03-01T01:50:23;21.98;;;12.88;;
12968;SDS011;6549;53.128;8.182;2023-03-01T01:53:23;22.67;;;13.10;;
12968;SDS011;6549;53.128;8.182;2023-03-01T01:56:25;20.00;;;12.57;;
12968;SDS011;6549;53.128;8.182;2023-03-01T01:59:28;21.42;;;13.20;;
12968;SDS011;6549;53.128;8.182;2023-03-01T02:02:31;22.27;;;13.50;;
12968;SDS011;6549;53.128;8.182;2023-03-01T02:08:48;22.30;;;12.27;;
12968;SDS011;6549;53.128;8.182;2023-03-01T02:11:52;19.52;;;12.15;;
12968;SDS011;6549;53.128;8.182;2023-03-01T02:14:53;21.45;;;12.77;;
12968;SDS011;6549;53.128;8.182;2023-03-01T02:17:54;19.27;;;11.70;;
12968;SDS011;6549;53.128;8.182;2023-03-01T02:24:21;21.77;;;12.23;;
12968;SDS011;6549;53.128;8.182;2023-03-01T02:27:33;26.58;;;14.48;;
12968;SDS011;6549;53.128;8.182;2023-03-01T02:30:41;24.02;;;12.10;;
12968;SDS011;6549;53.128;8.182;2023-03-01T02:34:02;19.23;;;11.38;;
12968;SDS011;6549;53.128;8.182;2023-03-01T02:37:07;19.05;;;12.00;;
12968;SDS011;6549;53.128;8.182;2023-03-01T02:40:13;19.70;;;11.35;;
12968;SDS011;6549;53.128;8.182;2023-03-01T02:43:17;20.17;;;12.20;;
12968;SDS011;6549;53.128;8.182;2023-03-01T02:46:22;18.50;;;11.80;;
12968;SDS011;6549;53.128;8.182;2023-03-01T02:49:25;21.70;;;13.20;;
12968;SDS011;6549;53.128;8.182;2023-03-01T02:55:37;20.90;;;12.50;;
12968;SDS011;6549;53.128;8.182;2023-03-01T02:58:41;21.20;;;12.50;;
12968;SDS011;6549;53.128;8.182;2023-03-01T03:01:45;19.60;;;12.35;;
12968;SDS011;6549;53.128;8.182;2023-03-01T03:04:46;21.88;;;12.45;;
12968;SDS011;6549;53.128;8.182;2023-03-01T03:07:47;24.45;;;14.18;;
12968;SDS011;6549;53.128;8.182;2023-03-01T03:10:48;24.25;;;13.27;;
12968;SDS011;6549;53.128;8.182;2023-03-01T03:13:48;21.88;;;12.48;;
12968;SDS011;6549;53.128;8.182;2023-03-01T03:16:49;21.60;;;12.55;;
12968;SDS011;6549;53.128;8.182;2023-03-01T03:19:50;20.00;;;12.35;;
12968;SDS011;6549;53.128;8.182;2023-03-01T03:22:52;19.48;;;11.93;;
12968;SDS011;6549;53.128;8.182;2023-03-01T03:25:53;19.95;;;11.50;;
12968;SDS011;6549;53.128;8.182;2023-03-01T03:28:54;18.90;;;10.80;;
12968;SDS011;6549;53.128;8.182;2023-03-01T03:31:54;20.05;;;10.85;;
12968;SDS011;6549;53.128;8.182;2023-03-01T03:34:54;19.30;;;12.07;;
12968;SDS011;6549;53.128;8.182;2023-03-01T03:37:55;20.17;;;12.45;;
12968;SDS011;6549;53.128;8.182;2023-03-01T03:41:04;22.20;;;12.63;;
12968;SDS011;6549;53.128;8.182;2023-03-01T03:44:07;20.92;;;13.18;;
12968;SDS011;6549;53.128;8.182;2023-03-01T03:47:07;21.77;;;12.18;;
12968;SDS011;6549;53.128;8.182;2023-03-01T03:50:08;22.13;;;12.13;;
12968;SDS011;6549;53.128;8.182;2023-03-01T03:53:13;20.35;;;11.70;;
12968;SDS011;6549;53.128;8.182;2023-03-01T03:56:13;22.92;;;13.13;;
12968;SDS011;6549;53.128;8.182;2023-03-01T03:59:14;30.20;;;16.30;;
12968;SDS011;6549;53.128;8.182;2023-03-01T04:02:14;24.20;;;14.35;;
12968;SDS011;6549;53.128;8.182;2023-03-01T04:05:22;22.90;;;14.68;;
12968;SDS011;6549;53.128;8.182;2023-03-01T04:11:25;22.02;;;12.88;;
12968;SDS011;6549;53.128;8.182;2023-03-01T04:14:28;22.08;;;12.13;;
12968;SDS011;6549;53.128;8.182;2023-03-01T04:17:28;22.23;;;12.18;;
12968;SDS011;6549;53.128;8.182;2023-03-01T04:20:30;20.08;;;11.38;;
12968;SDS011;6549;53.128;8.182;2023-03-01T04:23:33;25.63;;;12.60;;
12968;SDS011;6549;53.128;8.182;2023-03-01T04:26:33;25.25;;;13.88;;
12968;SDS011;6549;53.128;8.182;2023-03-01T04:29:34;24.58;;;14.50;;
12968;SDS011;6549;53.128;8.182;2023-03-01T04:32:34;28.15;;;16.40;;
12968;SDS011;6549;53.128;8.182;2023-03-01T04:35:35;24.40;;;14.63;;
12968;SDS011;6549;53.128;8.182;2023-03-01T04:38:36;24.23;;;13.40;;
12968;SDS011;6549;53.128;8.182;2023-03-01T04:41:38;25.05;;;13.73;;
12968;SDS011;6549;53.128;8.182;2023-03-01T04:44:39;23.38;;;13.63;;
12968;SDS011;6549;53.128;8.182;2023-03-01T04:47:40;24.23;;;14.10;;
12968;SDS011;6549;53.128;8.182;2023-03-01T04:50:42;25.58;;;14.68;;
12968;SDS011;6549;53.128;8.182;2023-03-01T04:53:43;26.60;;;14.23;;
12968;SDS011;6549;53.128;8.182;2023-03-01T04:56:43;27.50;;;14.52;;
12968;SDS011;6549;53.128;8.182;2023-03-01T04:59:44;24.50;;;14.18;;
12968;SDS011;6549;53.128;8.182;2023-03-01T05:02:44;24.67;;;14.27;;
12968;SDS011;6549;53.128;8.182;2023-03-01T05:05:45;28.00;;;14.98;;
12968;SDS011;6549;53.128;8.182;2023-03-01T05:08:46;23.85;;;13.65;;
12968;SDS011;6549;53.128;8.182;2023-03-01T05:11:47;24.05;;;13.80;;
12968;SDS011;6549;53.128;8.182;2023-03-01T05:14:47;21.92;;;12.68;;
12968;SDS011;6549;53.128;8.182;2023-03-01T05:17:48;25.80;;;14.27;;
12968;SDS011;6549;53.128;8.182;2023-03-01T05:20:49;26.10;;;12.80;;
12968;SDS011;6549;53.128;8.182;2023-03-01T05:23:49;22.30;;;12.90;;
12968;SDS011;6549;53.128;8.182;2023-03-01T05:26:49;26.15;;;12.57;;
12968;SDS011;6549;53.128;8.182;2023-03-01T05:29:51;26.70;;;13.85;;
12968;SDS011;6549;53.128;8.182;2023-03-01T05:32:52;23.48;;;13.35;;
12968;SDS011;6549;53.128;8.182;2023-03-01T05:35:59;26.25;;;13.25;;
12968;SDS011;6549;53.128;8.182;2023-03-01T05:39:00;27.17;;;14.00;;
12968;SDS011;6549;53.128;8.182;2023-03-01T05:42:00;25.02;;;14.10;;
12968;SDS011;6549;53.128;8.182;2023-03-01T05:45:01;23.00;;;12.52;;
12968;SDS011;6549;53.128;8.182;2023-03-01T05:48:01;24.40;;;13.05;;
12968;SDS011;6549;53.128;8.182;2023-03-01T05:51:02;44.28;;;22.83;;
12968;SDS011;6549;53.128;8.182;2023-03-01T05:54:02;37.17;;;19.33;;
12968;SDS011;6549;53.128;8.182;2023-03-01T05:57:05;34.75;;;20.10;;
12968;SDS011;6549;53.128;8.182;2023-03-01T06:00:05;33.58;;;19.05;;
12968;SDS011;6549;53.128;8.182;2023-03-01T06:03:09;33.50;;;18.10;;
12968;SDS011;6549;53.128;8.182;2023-03-01T06:06:10;36.42;;;18.85;;
12968;SDS011;6549;53.128;8.182;2023-03-01T06:09:10;27.40;;;15.88;;
12968;SDS011;6549;53.128;8.182;2023-03-01T06:12:11;29.25;;;16.50;;
12968;SDS011;6549;53.128;8.182;2023-03-01T06:15:12;27.27;;;15.65;;
12968;SDS011;6549;53.128;8.182;2023-03-01T06:18:13;29.92;;;16.60;;
12968;SDS011;6549;53.128;8.182;2023-03-01T06:21:14;30.48;;;16.98;;
12968;SDS011;6549;53.128;8.182;2023-03-01T06:24:14;27.42;;;15.65;;
12968;SDS011;6549;53.128;8.182;2023-03-01T06:27:14;26.13;;;15.32;;
12968;SDS011;6549;53.128;8.182;2023-03-01T06:30:16;26.42;;;14.68;;
12968;SDS011;6549;53.128;8.182;2023-03-01T06:33:18;24.08;;;14.02;;
12968;SDS011;6549;53.128;8.182;2023-03-01T06:36:24;24.20;;;13.30;;
12968;SDS011;6549;53.128;8.182;2023-03-01T06:39:24;24.27;;;14.98;;
12968;SDS011;6549;53.128;8.182;2023-03-01T06:42:24;23.73;;;13.10;;
12968;SDS011;6549;53.128;8.182;2023-03-01T06:45:25;24.08;;;14.18;;
12968;SDS011;6549;53.128;8.182;2023-03-01T06:48:25;21.77;;;12.48;;
12968;SDS011;6549;53.128;8.182;2023-03-01T06:51:25;21.48;;;12.63;;
12968;SDS011;6549;53.128;8.182;2023-03-01T06:54:26;25.73;;;14.00;;
12968;SDS011;6549;53.128;8.182;2023-03-01T06:57:26;20.92;;;12.65;;
12968;SDS011;6549;53.128;8.182;2023-03-01T07:00:27;22.95;;;13.27;;
12968;SDS011;6549;53.128;8.182;2023-03-01T07:03:27;22.50;;;14.02;;
12968;SDS011;6549;53.128;8.182;2023-03-01T07:06:28;20.27;;;12.50;;
12968;SDS011;6549;53.128;8.182;2023-03-01T07:09:28;22.23;;;12.70;;
12968;SDS011;6549;53.128;8.182;2023-03-01T07:12:28;22.88;;;14.23;;
12968;SDS011;6549;53.128;8.182;2023-03-01T07:15:29;32.60;;;19.05;;
12968;SDS011;6549;53.128;8.182;2023-03-01T07:18:29;29.70;;;16.30;;
12968;SDS011;6549;53.128;8.182;2023-03-01T07:21:29;25.98;;;15.80;;
12968;SDS011;6549;53.128;8.182;2023-03-01T07:24:30;29.27;;;16.33;;
12968;SDS011;6549;53.128;8.182;2023-03-01T07:27:30;29.25;;;16.67;;
12968;SDS011;6549;53.128;8.182;2023-03-01T07:30:30;30.85;;;16.92;;
12968;SDS011;6549;53.128;8.182;2023-03-01T07:33:32;38.03;;;20.05;;
12968;SDS011;6549;53.128;8.182;2023-03-01T07:36:32;41.58;;;23.10;;
12968;SDS011;6549;53.128;8.182;2023-03-01T07:39:33;37.83;;;22.33;;
12968;SDS011;6549;53.128;8.182;2023-03-01T07:42:33;37.67;;;22.58;;
12968;SDS011;6549;53.128;8.182;2023-03-01T07:45:33;42.20;;;23.88;;
12968;SDS011;6549;53.128;8.182;2023-03-01T07:48:34;39.47;;;22.10;;
12968;SDS011;6549;53.128;8.182;2023-03-01T07:51:34;35.10;;;19.30;;
12968;SDS011;6549;53.128;8.182;2023-03-01T07:54:34;39.55;;;21.15;;
12968;SDS011;6549;53.128;8.182;2023-03-01T07:57:35;34.08;;;19.20;;
12968;SDS011;6549;53.128;8.182;2023-03-01T08:00:35;33.03;;;19.55;;
12968;SDS011;6549;53.128;8.182;2023-03-01T08:03:36;32.95;;;19.92;;
12968;SDS011;6549;53.128;8.182;2023-03-01T08:06:37;34.13;;;19.98;;
12968;SDS011;6549;53.128;8.182;2023-03-01T08:09:37;30.60;;;17.77;;
12968;SDS011;6549;53.128;8.182;2023-03-01T08:12:37;29.48;;;17.95;;
12968;SDS011;6549;53.128;8.182;2023-03-01T08:15:38;32.53;;;18.95;;
12968;SDS011;6549;53.128;8.182;2023-03-01T08:18:38;37.10;;;22.10;;
12968;SDS011;6549;53.128;8.182;2023-03-01T08:21:39;40.80;;;21.73;;
12968;SDS011;6549;53.128;8.182;2023-03-01T08:24:39;48.00;;;24.00;;
12968;SDS011;6549;53.128;8.182;2023-03-01T08:27:40;38.58;;;22.63;;
12968;SDS011;6549;53.128;8.182;2023-03-01T08:30:40;37.00;;;21.80;;
12968;SDS011;6549;53.128;8.182;2023-03-01T08:33:40;39.30;;;22.90;;
12968;SDS011;6549;53.128;8.182;2023-03-01T08:36:42;37.05;;;22.00;;
12968;SDS011;6549;53.128;8.182;2023-03-01T08:39:44;36.08;;;22.30;;
12968;SDS011;6549;53.128;8.182;2023-03-01T08:42:44;40.38;;;21.45;;
12968;SDS011;6549;53.128;8.182;2023-03-01T08:45:44;38.00;;;21.65;;
12968;SDS011;6549;53.128;8.182;2023-03-01T08:48:45;39.55;;;20.50;;
12968;SDS011;6549;53.128;8.182;2023-03-01T08:51:46;35.65;;;18.75;;
12968;SDS011;6549;53.128;8.182;2023-03-01T08:54:47;29.13;;;17.90;;
12968;SDS011;6549;53.128;8.182;2023-03-01T08:57:48;31.08;;;17.67;;
12968;SDS011;6549;53.128;8.182;2023-03-01T09:00:48;27.42;;;17.15;;
12968;SDS011;6549;53.128;8.182;2023-03-01T09:03:48;28.67;;;17.85;;
12968;SDS011;6549;53.128;8.182;2023-03-01T09:06:49;28.42;;;16.02;;
12968;SDS011;6549;53.128;8.182;2023-03-01T09:09:49;23.40;;;15.60;;
12968;SDS011;6549;53.128;8.182;2023-03-01T09:12:53;23.52;;;14.77;;
12968;SDS011;6549;53.128;8.182;2023-03-01T09:15:54;23.38;;;13.45;;
12968;SDS011;6549;53.128;8.182;2023-03-01T09:18:55;21.23;;;12.90;;
12968;SDS011;6549;53.128;8.182;2023-03-01T09:21:55;17.70;;;11.93;;
12968;SDS011;6549;53.128;8.182;2023-03-01T09:24:56;22.15;;;13.60;;
12968;SDS011;6549;53.128;8.182;2023-03-01T09:27:59;19.15;;;12.73;;
12968;SDS011;6549;53.128;8.182;2023-03-01T09:30:59;19.83;;;12.77;;
12968;SDS011;6549;53.128;8.182;2023-03-01T09:34:00;22.35;;;13.23;;
12968;SDS011;6549;53.128;8.182;2023-03-01T09:37:00;16.33;;;9.07;;
12968;SDS011;6549;53.128;8.182;2023-03-01T09:40:02;19.00;;;11.02;;
12968;SDS011;6549;53.128;8.182;2023-03-01T09:46:43;21.33;;;10.63;;
12968;SDS011;6549;53.128;8.182;2023-03-01T09:49:49;17.13;;;9.18;;
12968;SDS011;6549;53.128;8.182;2023-03-01T09:53:13;10.82;;;7.43;;
12968;SDS011;6549;53.128;8.182;2023-03-01T09:56:17;11.30;;;5.63;;
12968;SDS011;6549;53.128;8.182;2023-03-01T09:59:26;11.85;;;7.25;;
12968;SDS011;6549;53.128;8.182;2023-03-01T10:03:12;12.15;;;7.05;;
12968;SDS011;6549;53.128;8.182;2023-03-01T10:06:19;12.32;;;7.30;;
12968;SDS011;6549;53.128;8.182;2023-03-01T10:09:23;9.23;;;6.18;;
12968;SDS011;6549;53.128;8.182;2023-03-01T10:12:25;10.07;;;6.30;;
12968;SDS011;6549;53.128;8.182;2023-03-01T10:15:35;9.45;;;6.15;;
12968;SDS011;6549;53.128;8.182;2023-03-01T10:18:52;10.85;;;7.47;;
12968;SDS011;6549;53.128;8.182;2023-03-01T10:21:56;12.48;;;7.60;;
12968;SDS011;6549;53.128;8.182;2023-03-01T10:25:02;12.35;;;7.15;;
12968;SDS011;6549;53.128;8.182;2023-03-01T10:31:18;11.90;;;6.10;;
12968;SDS011;6549;53.128;8.182;2023-03-01T10:34:30;16.55;;;6.85;;
12968;SDS011;6549;53.128;8.182;2023-03-01T10:37:31;12.60;;;7.32;;
12968;SDS011;6549;53.128;8.182;2023-03-01T10:40:32;13.40;;;7.32;;
12968;SDS011;6549;53.128;8.182;2023-03-01T10:47:29;12.32;;;7.15;;
12968;SDS011;6549;53.128;8.182;2023-03-01T10:50:30;12.70;;;7.53;;
12968;SDS011;6549;53.128;8.182;2023-03-01T10:56:51;14.93;;;8.32;;
12968;SDS011;6549;53.128;8.182;2023-03-01T11:00:00;14.95;;;8.15;;
12968;SDS011;6549;53.128;8.182;2023-03-01T11:03:14;11.48;;;7.00;;
12968;SDS011;6549;53.128;8.182;2023-03-01T11:06:22;14.60;;;8.63;;
12968;SDS011;6549;53.128;8.182;2023-03-01T11:09:23;15.43;;;9.65;;
12968;SDS011;6549;53.128;8.182;2023-03-01T11:12:27;14.02;;;9.65;;
12968;SDS011;6549;53.128;8.182;2023-03-01T11:15:29;14.45;;;10.35;;
12968;SDS011;6549;53.128;8.182;2023-03-01T11:18:30;16.13;;;10.68;;
12968;SDS011;6549;53.128;8.182;2023-03-01T11:21:32;18.75;;;10.00;;
12968;SDS011;6549;53.128;8.182;2023-03-01T11:24:37;14.20;;;10.20;;
12968;SDS011;6549;53.128;8.182;2023-03-01T11:27:44;14.65;;;9.60;;
12968;SDS011;6549;53.128;8.182;2023-03-01T11:34:13;14.75;;;9.73;;
12968;SDS011;6549;53.128;8.182;2023-03-01T11:37:40;16.88;;;10.40;;
12968;SDS011;6549;53.128;8.182;2023-03-01T11:40:47;14.30;;;9.85;;
12968;SDS011;6549;53.128;8.182;2023-03-01T11:44:03;14.63;;;10.10;;
12968;SDS011;6549;53.128;8.182;2023-03-01T12:07:09;16.17;;;11.77;;
12968;SDS011;6549;53.128;8.182;2023-03-01T12:20:28;17.13;;;11.25;;
12968;SDS011;6549;53.128;8.182;2023-03-01T12:23:58;21.63;;;12.80;;
12968;SDS011;6549;53.128;8.182;2023-03-01T12:37:48;18.60;;;11.25;;
12968;SDS011;6549;53.128;8.182;2023-03-01T12:47:52;18.42;;;12.45;;
12968;SDS011;6549;53.128;8.182;2023-03-01T12:51:08;19.83;;;12.00;;
12968;SDS011;6549;53.128;8.182;2023-03-01T12:54:22;18.13;;;12.45;;
12968;SDS011;6549;53.128;8.182;2023-03-01T12:57:37;18.92;;;12.18;;
12968;SDS011;6549;53.128;8.182;2023-03-01T13:04:05;19.23;;;11.20;;
12968;SDS011;6549;53.128;8.182;2023-03-01T13:07:24;16.02;;;10.90;;
12968;SDS011;6549;53.128;8.182;2023-03-01T13:17:32;16.65;;;11.18;;
12968;SDS011;6549;53.128;8.182;2023-03-01T13:23:47;17.37;;;12.43;;
12968;SDS011;6549;53.128;8.182;2023-03-01T13:30:38;17.30;;;12.00;;
12968;SDS011;6549;53.128;8.182;2023-03-01T13:33:41;19.38;;;12.45;;
12968;SDS011;6549;53.128;8.182;2023-03-01T13:36:46;20.17;;;13.05;;
12968;SDS011;6549;53.128;8.182;2023-03-01T13:39:48;19.92;;;13.05;;
12968;SDS011;6549;53.128;8.182;2023-03-01T13:42:49;19.70;;;13.50;;
12968;SDS011;6549;53.128;8.182;2023-03-01T13:45:50;18.07;;;12.50;;
12968;SDS011;6549;53.128;8.182;2023-03-01T13:48:52;19.25;;;13.48;;
12968;SDS011;6549;53.128;8.182;2023-03-01T13:51:56;19.60;;;13.35;;
12968;SDS011;6549;53.128;8.182;2023-03-01T13:54:57;19.08;;;13.15;;
12968;SDS011;6549;53.128;8.182;2023-03-01T13:57:59;24.88;;;13.32;;
12968;SDS011;6549;53.128;8.182;2023-03-01T14:01:05;21.83;;;13.27;;
12968;SDS011;6549;53.128;8.182;2023-03-01T14:04:41;23.33;;;14.13;;
12968;SDS011;6549;53.128;8.182;2023-03-01T14:07:35;20.70;;;13.68;;
12968;SDS011;6549;53.128;8.182;2023-03-01T14:10:40;20.48;;;13.60;;
12968;SDS011;6549;53.128;8.182;2023-03-01T14:14:06;21.05;;;13.75;;
12968;SDS011;6549;53.128;8.182;2023-03-01T14:20:50;19.70;;;13.05;;
12968;SDS011;6549;53.128;8.182;2023-03-01T14:23:52;18.58;;;13.07;;
12968;SDS011;6549;53.128;8.182;2023-03-01T14:26:52;20.38;;;12.43;;
12968;SDS011;6549;53.128;8.182;2023-03-01T14:29:58;22.35;;;13.27;;
12968;SDS011;6549;53.128;8.182;2023-03-01T14:33:02;19.23;;;13.00;;
12968;SDS011;6549;53.128;8.182;2023-03-01T14:39:16;19.17;;;12.70;;
12968;SDS011;6549;53.128;8.182;2023-03-01T14:42:24;20.83;;;13.77;;
12968;SDS011;6549;53.128;8.182;2023-03-01T14:45:29;20.73;;;13.25;;
12968;SDS011;6549;53.128;8.182;2023-03-01T14:48:36;18.88;;;12.73;;
12968;SDS011;6549;53.128;8.182;2023-03-01T14:51:37;24.95;;;13.82;;
12968;SDS011;6549;53.128;8.182;2023-03-01T14:54:42;20.35;;;13.60;;
12968;SDS011;6549;53.128;8.182;2023-03-01T14:57:53;22.33;;;13.68;;
12968;SDS011;6549;53.128;8.182;2023-03-01T15:00:55;19.95;;;12.48;;
12968;SDS011;6549;53.128;8.182;2023-03-01T15:03:57;20.05;;;13.43;;
12968;SDS011;6549;53.128;8.182;2023-03-01T15:06:58;21.45;;;14.63;;
12968;SDS011;6549;53.128;8.182;2023-03-01T15:10:05;23.00;;;15.38;;
12968;SDS011;6549;53.128;8.182;2023-03-01T15:13:22;24.42;;;16.10;;
12968;SDS011;6549;53.128;8.182;2023-03-01T15:19:32;22.60;;;15.98;;
12968;SDS011;6549;53.128;8.182;2023-03-01T15:22:32;28.45;;;16.05;;
12968;SDS011;6549;53.128;8.182;2023-03-01T15:25:34;26.27;;;16.47;;
12968;SDS011;6549;53.128;8.182;2023-03-01T15:28:37;24.42;;;16.02;;
12968;SDS011;6549;53.128;8.182;2023-03-01T15:31:42;26.08;;;16.20;;
12968;SDS011;6549;53.128;8.182;2023-03-01T15:34:43;26.00;;;17.00;;
12968;SDS011;6549;53.128;8.182;2023-03-01T15:37:45;31.02;;;17.13;;
12968;SDS011;6549;53.128;8.182;2023-03-01T15:40:49;27.88;;;17.23;;
12968;SDS011;6549;53.128;8.182;2023-03-01T15:43:50;27.25;;;17.02;;
12968;SDS011;6549;53.128;8.182;2023-03-01T15:46:50;26.77;;;17.63;;
12968;SDS011;6549;53.128;8.182;2023-03-01T15:49:51;25.63;;;17.63;;
12968;SDS011;6549;53.128;8.182;2023-03-01T15:52:53;25.58;;;17.10;;
12968;SDS011;6549;53.128;8.182;2023-03-01T15:55:54;25.88;;;17.50;;
12968;SDS011;6549;53.128;8.182;2023-03-01T15:58:58;28.38;;;17.60;;
12968;SDS011;6549;53.128;8.182;2023-03-01T16:02:00;27.88;;;17.77;;
12968;SDS011;6549;53.128;8.182;2023-03-01T16:05:00;27.33;;;18.45;;
12968;SDS011;6549;53.128;8.182;2023-03-01T16:08:01;26.50;;;18.05;;
12968;SDS011;6549;53.128;8.182;2023-03-01T16:11:03;30.63;;;17.65;;
12968;SDS011;6549;53.128;8.182;2023-03-01T16:14:05;26.10;;;17.45;;
12968;SDS011;6549;53.128;8.182;2023-03-01T16:17:06;28.25;;;18.15;;
12968;SDS011;6549;53.128;8.182;2023-03-01T16:20:09;29.08;;;17.90;;
12968;SDS011;6549;53.128;8.182;2023-03-01T16:23:11;27.83;;;18.13;;
12968;SDS011;6549;53.128;8.182;2023-03-01T16:26:11;33.13;;;18.67;;
12968;SDS011;6549;53.128;8.182;2023-03-01T16:29:13;31.40;;;19.10;;
12968;SDS011;6549;53.128;8.182;2023-03-01T16:32:13;29.17;;;19.00;;
12968;SDS011;6549;53.128;8.182;2023-03-01T16:35:14;29.23;;;17.80;;
12968;SDS011;6549;53.128;8.182;2023-03-01T16:38:16;27.75;;;18.60;;
12968;SDS011;6549;53.128;8.182;2023-03-01T16:41:17;28.80;;;18.13;;
12968;SDS011;6549;53.128;8.182;2023-03-01T16:44:19;28.15;;;17.80;;
12968;SDS011;6549;53.128;8.182;2023-03-01T16:47:20;25.85;;;16.85;;
12968;SDS011;6549;53.128;8.182;2023-03-01T16:50:20;27.77;;;17.50;;
12968;SDS011;6549;53.128;8.182;2023-03-01T16:53:20;29.83;;;18.77;;
12968;SDS011;6549;53.128;8.182;2023-03-01T16:56:21;29.35;;;19.08;;
12968;SDS011;6549;53.128;8.182;2023-03-01T16:59:21;29.58;;;17.83;;
12968;SDS011;6549;53.128;8.182;2023-03-01T17:02:22;28.30;;;18.77;;
12968;SDS011;6549;53.128;8.182;2023-03-01T17:05:22;28.65;;;18.13;;
12968;SDS011;6549;53.128;8.182;2023-03-01T17:08:24;31.67;;;19.83;;
12968;SDS011;6549;53.128;8.182;2023-03-01T17:11:24;28.52;;;19.77;;
12968;SDS011;6549;53.128;8.182;2023-03-01T17:14:25;32.85;;;19.48;;
12968;SDS011;6549;53.128;8.182;2023-03-01T17:17:25;30.33;;;19.02;;
12968;SDS011;6549;53.128;8.182;2023-03-01T17:20:26;28.88;;;17.83;;
12968;SDS011;6549;53.128;8.182;2023-03-01T17:23:27;28.27;;;19.27;;
12968;SDS011;6549;53.128;8.182;2023-03-01T17:26:28;30.33;;;20.08;;
12968;SDS011;6549;53.128;8.182;2023-03-01T17:29:29;25.40;;;17.17;;
12968;SDS011;6549;53.128;8.182;2023-03-01T17:32:30;32.50;;;19.38;;
12968;SDS011;6549;53.128;8.182;2023-03-01T17:35:30;26.63;;;17.60;;
12968;SDS011;6549;53.128;8.182;2023-03-01T17:38:35;28.98;;;17.98;;
12968;SDS011;6549;53.128;8.182;2023-03-01T17:41:36;28.67;;;18.77;;
12968;SDS011;6549;53.128;8.182;2023-03-01T17:44:36;28.35;;;17.38;;
12968;SDS011;6549;53.128;8.182;2023-03-01T17:47:37;27.83;;;17.85;;
12968;SDS011;6549;53.128;8.182;2023-03-01T17:50:37;31.02;;;18.20;;
12968;SDS011;6549;53.128;8.182;2023-03-01T17:53:39;31.63;;;18.63;;
12968;SDS011;6549;53.128;8.182;2023-03-01T17:56:39;28.73;;;17.15;;
12968;SDS011;6549;53.128;8.182;2023-03-01T17:59:41;27.30;;;16.80;;
12968;SDS011;6549;53.128;8.182;2023-03-01T18:02:42;29.15;;;17.30;;
12968;SDS011;6549;53.128;8.182;2023-03-01T18:05:43;31.92;;;18.20;;
12968;SDS011;6549;53.128;8.182;2023-03-01T18:08:44;32.35;;;17.48;;
12968;SDS011;6549;53.128;8.182;2023-03-01T18:11:44;30.75;;;17.35;;
12968;SDS011;6549;53.128;8.182;2023-03-01T18:14:45;30.05;;;16.75;;
12968;SDS011;6549;53.128;8.182;2023-03-01T18:17:47;30.98;;;17.55;;
12968;SDS011;6549;53.128;8.182;2023-03-01T18:20:54;31.42;;;17.63;;
12968;SDS011;6549;53.128;8.182;2023-03-01T18:23:58;31.52;;;18.08;;
12968;SDS011;6549;53.128;8.182;2023-03-01T18:27:01;34.08;;;17.77;;
12968;SDS011;6549;53.128;8.182;2023-03-01T18:30:03;36.95;;;19.20;;
12968;SDS011;6549;53.128;8.182;2023-03-01T18:33:05;33.45;;;18.42;;
12968;SDS011;6549;53.128;8.182;2023-03-01T18:36:05;35.97;;;17.98;;
12968;SDS011;6549;53.128;8.182;2023-03-01T18:39:17;36.55;;;19.27;;
12968;SDS011;6549;53.128;8.182;2023-03-01T18:42:18;37.03;;;18.73;;
12968;SDS011;6549;53.128;8.182;2023-03-01T18:45:20;38.55;;;19.45;;
12968;SDS011;6549;53.128;8.182;2023-03-01T18:48:21;39.53;;;20.45;;
12968;SDS011;6549;53.128;8.182;2023-03-01T18:51:22;41.67;;;20.75;;
12968;SDS011;6549;53.128;8.182;2023-03-01T18:54:24;38.90;;;20.30;;
12968;SDS011;6549;53.128;8.182;2023-03-01T18:57:25;39.08;;;19.45;;
12968;SDS011;6549;53.128;8.182;2023-03-01T19:00:25;39.42;;;21.05;;
12968;SDS011;6549;53.128;8.182;2023-03-01T19:03:26;42.50;;;20.63;;
12968;SDS011;6549;53.128;8.182;2023-03-01T19:06:29;38.43;;;19.40;;
12968;SDS011;6549;53.128;8.182;2023-03-01T19:09:31;40.25;;;19.10;;
12968;SDS011;6549;53.128;8.182;2023-03-01T19:12:33;41.25;;;19.95;;
12968;SDS011;6549;53.128;8.182;2023-03-01T19:15:34;42.50;;;20.40;;
12968;SDS011;6549;53.128;8.182;2023-03-01T19:18:35;46.97;;;20.55;;
12968;SDS011;6549;53.128;8.182;2023-03-01T19:21:38;37.30;;;18.63;;
12968;SDS011;6549;53.128;8.182;2023-03-01T19:24:39;41.55;;;20.67;;
12968;SDS011;6549;53.128;8.182;2023-03-01T19:27:39;36.45;;;18.75;;
12968;SDS011;6549;53.128;8.182;2023-03-01T19:30:39;36.33;;;18.90;;
12968;SDS011;6549;53.128;8.182;2023-03-01T19:33:40;39.20;;;18.35;;
12968;SDS011;6549;53.128;8.182;2023-03-01T19:36:41;41.03;;;18.83;;
12968;SDS011;6549;53.128;8.182;2023-03-01T19:39:42;33.58;;;16.80;;
12968;SDS011;6549;53.128;8.182;2023-03-01T19:42:42;34.60;;;17.25;;
12968;SDS011;6549;53.128;8.182;2023-03-01T19:45:43;35.45;;;16.52;;
12968;SDS011;6549;53.128;8.182;2023-03-01T19:48:45;34.92;;;16.73;;
12968;SDS011;6549;53.128;8.182;2023-03-01T19:51:45;33.50;;;16.50;;
12968;SDS011;6549;53.128;8.182;2023-03-01T19:54:45;35.97;;;17.40;;